Time;durP1;ratioP1;P1;durP2;ratioP2;P2;SDS_P1;SDS_P2;PMS_P1;PMS_P2;Temp;Humidity;BMP_temperature;BMP_pressure;BME280_temperature;BME280_humidity;BME280_pressure;Samples;Min_cycle;Max_cycle;Signal;HPM_P1;HPM_P2
2022/03/08 00:01:48;;;;;;;18.38;12.05;;;2.30;96.40;;;;;;5051841;28;20560;-56
2022/03/08 00:04:14;;;;;;;16.23;11.35;;;2.50;96.20;;;;;;5051655;28;20386;-55
2022/03/08 00:06:40;;;;;;;17.95;12.05;;;2.60;95.90;;;;;;5051488;28;20032;-55
2022/03/08 00:09:05;;;;;;;17.02;11.43;;;2.70;95.40;;;;;;5053565;28;20367;-55
2022/03/08 00:11:31;;;;;;;17.42;12.35;;;2.80;95.30;;;;;;5053051;28;20021;-55
2022/03/08 00:13:57;;;;;;;16.20;11.45;;;2.70;95.30;;;;;;5053214;28;20031;-55
2022/03/08 00:16:22;;;;;;;19.05;12.70;;;2.60;95.60;;;;;;5052934;28;20033;-56
2022/03/08 00:18:49;;;;;;;19.23;11.05;;;2.60;95.70;;;;;;5053171;28;20474;-56
2022/03/08 00:21:16;;;;;;;18.55;11.60;;;2.60;95.70;;;;;;5052691;28;20028;-55
2022/03/08 00:23:42;;;;;;;17.95;12.10;;;2.70;95.60;;;;;;5053017;28;20021;-56
2022/03/08 00:26:08;;;;;;;16.15;11.60;;;2.50;96.00;;;;;;5052583;28;20071;-55
2022/03/08 00:28:33;;;;;;;19.05;11.77;;;2.40;96.30;;;;;;5051588;28;20526;-55
2022/03/08 00:31:00;;;;;;;20.05;11.35;;;2.40;96.30;;;;;;5049929;28;20033;-55
2022/03/08 00:33:26;;;;;;;21.50;12.02;;;2.40;96.10;;;;;;5052507;28;20028;-55
2022/03/08 00:35:52;;;;;;;16.80;11.52;;;2.50;96.00;;;;;;5051789;28;20036;-55
2022/03/08 00:38:18;;;;;;;19.67;12.38;;;2.50;96.00;;;;;;5050933;28;20028;-55
2022/03/08 00:40:44;;;;;;;18.65;12.05;;;2.50;95.80;;;;;;5052037;28;20032;-55
2022/03/08 00:43:10;;;;;;;21.38;11.18;;;2.40;96.00;;;;;;5052239;28;20370;-55
2022/03/08 00:45:36;;;;;;;17.73;12.13;;;2.30;96.30;;;;;;5052249;28;20501;-56
2022/03/08 00:48:02;;;;;;;17.75;11.18;;;2.40;96.30;;;;;;5052455;28;20052;-55
2022/03/08 00:50:29;;;;;;;16.83;11.75;;;2.40;96.10;;;;;;5052240;28;20051;-55
2022/03/08 00:52:56;;;;;;;17.17;10.98;;;2.40;96.10;;;;;;5052155;28;20615;-55
2022/03/08 00:55:24;;;;;;;19.50;12.68;;;2.30;96.30;;;;;;5052067;28;20029;-56
2022/03/08 00:57:50;;;;;;;17.65;11.20;;;2.30;96.40;;;;;;5052266;28;20053;-55
2022/03/08 01:00:19;;;;;;;17.65;11.88;;;2.20;96.60;;;;;;5051126;28;20070;-56
2022/03/08 01:02:45;;;;;;;17.67;12.43;;;2.10;97.00;;;;;;5051716;28;20025;-55
2022/03/08 01:05:11;;;;;;;18.50;11.82;;;2.20;96.70;;;;;;5052433;28;20025;-55
2022/03/08 01:07:37;;;;;;;16.52;11.73;;;2.40;96.60;;;;;;5051392;28;20615;-56
2022/03/08 01:10:05;;;;;;;19.05;12.57;;;2.30;96.50;;;;;;5051669;28;20086;-56
2022/03/08 01:12:31;;;;;;;16.70;11.68;;;2.30;96.70;;;;;;5051569;28;20021;-55
2022/03/08 01:14:57;;;;;;;18.92;11.10;;;2.30;96.60;;;;;;5051319;28;20029;-55
2022/03/08 01:17:23;;;;;;;17.23;12.35;;;2.30;96.60;;;;;;5053358;28;20096;-55
2022/03/08 01:19:49;;;;;;;19.88;12.50;;;2.20;96.90;;;;;;5053747;28;20104;-55
2022/03/08 01:22:14;;;;;;;19.38;12.23;;;2.20;97.00;;;;;;5055137;28;20487;-56
2022/03/08 01:24:40;;;;;;;18.45;12.60;;;2.20;97.10;;;;;;5054626;28;20029;-55
2022/03/08 01:27:06;;;;;;;18.08;12.45;;;2.30;96.40;;;;;;5055077;28;20056;-54
2022/03/08 01:29:31;;;;;;;18.52;12.27;;;2.30;96.50;;;;;;5055892;28;20378;-54
2022/03/08 01:31:57;;;;;;;17.95;11.75;;;2.20;96.70;;;;;;5055169;28;20522;-55
2022/03/08 01:34:23;;;;;;;16.60;12.63;;;2.20;97.00;;;;;;5054107;28;20021;-55
2022/03/08 01:36:48;;;;;;;17.27;11.93;;;2.10;97.00;;;;;;5055144;28;20029;-54
2022/03/08 01:39:14;;;;;;;20.13;12.50;;;2.10;97.30;;;;;;5054920;28;20105;-54
2022/03/08 01:41:40;;;;;;;17.77;12.27;;;2.00;97.50;;;;;;5052699;28;20021;-54
2022/03/08 01:44:09;;;;;;;19.20;12.90;;;2.00;97.80;;;;;;5054193;28;20052;-54
2022/03/08 01:46:37;;;;;;;17.52;12.38;;;2.00;98.00;;;;;;5054707;28;20025;-55
2022/03/08 01:49:05;;;;;;;20.00;13.10;;;1.90;98.20;;;;;;5055379;28;20298;-54
2022/03/08 01:51:37;;;;;;;20.10;12.77;;;1.90;98.20;;;;;;5054624;28;20055;-55
2022/03/08 01:54:04;;;;;;;20.45;13.02;;;1.80;98.60;;;;;;5053594;28;20036;-55
2022/03/08 01:56:30;;;;;;;21.63;13.63;;;1.70;99.00;;;;;;5054490;28;20029;-54
2022/03/08 01:58:56;;;;;;;19.27;12.05;;;1.70;99.00;;;;;;5054977;28;20025;-54
2022/03/08 02:01:23;;;;;;;20.75;12.90;;;1.70;99.10;;;;;;5055057;28;20029;-54
2022/03/08 02:03:48;;;;;;;21.13;13.10;;;1.60;99.30;;;;;;5053516;28;20356;-55
2022/03/08 02:06:14;;;;;;;18.67;12.80;;;1.60;99.50;;;;;;5053172;28;20032;-55
2022/03/08 02:08:41;;;;;;;22.17;12.55;;;1.50;99.80;;;;;;5054998;28;20032;-54
2022/03/08 02:11:07;;;;;;;18.67;12.77;;;1.60;99.80;;;;;;5054402;28;20105;-54
2022/03/08 02:13:33;;;;;;;22.65;13.40;;;1.70;99.30;;;;;;5054608;28;20060;-55
2022/03/08 02:16:01;;;;;;;19.95;13.27;;;1.60;99.40;;;;;;5052039;28;20528;-54
2022/03/08 02:18:27;;;;;;;19.98;12.88;;;1.50;99.90;;;;;;5054132;28;20087;-55
2022/03/08 02:20:52;;;;;;;21.63;12.77;;;1.50;99.90;;;;;;5053248;28;20021;-55
2022/03/08 02:23:18;;;;;;;20.50;12.98;;;1.50;99.90;;;;;;5054204;28;20049;-55
2022/03/08 02:25:44;;;;;;;20.02;13.43;;;1.50;99.90;;;;;;5053952;28;20543;-55
2022/03/08 02:28:09;;;;;;;22.42;13.88;;;1.50;99.90;;;;;;5053665;28;20036;-54
2022/03/08 02:30:35;;;;;;;20.42;12.93;;;1.50;99.90;;;;;;5054051;28;20075;-54
2022/03/08 02:33:01;;;;;;;19.33;12.75;;;1.50;99.90;;;;;;5053892;28;20053;-54
2022/03/08 02:35:29;;;;;;;21.25;13.18;;;1.50;99.90;;;;;;5054015;28;20056;-54
2022/03/08 02:38:03;;;;;;;21.92;12.45;;;1.50;99.90;;;;;;5053874;28;20051;-55
2022/03/08 02:40:32;;;;;;;21.23;14.15;;;1.60;99.90;;;;;;5054111;28;20040;-55
2022/03/08 02:42:58;;;;;;;22.55;13.95;;;1.50;99.90;;;;;;5053791;28;20025;-55
2022/03/08 02:45:24;;;;;;;22.38;13.10;;;1.50;99.90;;;;;;5053142;28;20029;-54
2022/03/08 02:47:50;;;;;;;20.92;13.27;;;1.40;99.90;;;;;;5053882;28;20059;-54
2022/03/08 02:50:20;;;;;;;20.40;13.48;;;1.30;99.90;;;;;;5053814;28;20068;-54
2022/03/08 02:52:48;;;;;;;21.35;13.85;;;1.30;99.90;;;;;;5053599;28;20028;-55
2022/03/08 02:55:14;;;;;;;25.30;13.73;;;1.20;99.90;;;;;;5052568;28;20102;-54
2022/03/08 02:57:41;;;;;;;20.27;13.77;;;1.20;99.90;;;;;;5053328;28;20029;-55
2022/03/08 03:00:09;;;;;;;25.08;14.07;;;1.20;99.90;;;;;;5053106;28;20074;-55
2022/03/08 03:02:35;;;;;;;23.95;13.70;;;0.90;99.90;;;;;;5053371;28;20009;-54
2022/03/08 03:05:00;;;;;;;21.23;14.27;;;0.90;99.90;;;;;;5053586;28;20078;-54
2022/03/08 03:07:26;;;;;;;21.52;13.80;;;1.00;99.90;;;;;;5053605;28;20033;-55
2022/03/08 03:09:52;;;;;;;21.20;14.40;;;1.00;99.90;;;;;;5051374;28;20029;-54
2022/03/08 03:12:18;;;;;;;20.63;13.90;;;1.00;99.90;;;;;;5051559;28;20070;-55
2022/03/08 03:14:44;;;;;;;20.05;13.27;;;1.00;99.90;;;;;;5053090;28;20445;-55
2022/03/08 03:17:10;;;;;;;22.05;14.65;;;0.90;99.90;;;;;;5052945;28;20029;-55
2022/03/08 03:19:36;;;;;;;23.75;14.10;;;0.80;99.90;;;;;;5053894;28;20024;-55
2022/03/08 03:22:03;;;;;;;22.58;14.27;;;0.70;99.90;;;;;;5052479;28;20103;-55
2022/03/08 03:24:28;;;;;;;19.95;13.82;;;0.70;99.90;;;;;;5053771;28;20163;-55
2022/03/08 03:26:54;;;;;;;29.67;15.18;;;0.80;99.90;;;;;;5052969;28;20057;-54
2022/03/08 03:29:20;;;;;;;20.77;14.18;;;0.90;99.90;;;;;;5052723;28;20490;-54
2022/03/08 03:31:45;;;;;;;22.20;13.65;;;1.00;99.90;;;;;;5052022;28;20056;-54
2022/03/08 03:34:14;;;;;;;21.65;13.80;;;1.10;99.90;;;;;;5051900;28;20106;-54
2022/03/08 03:36:40;;;;;;;22.55;13.85;;;1.10;99.90;;;;;;5052679;28;20100;-54
2022/03/08 03:39:07;;;;;;;23.88;14.57;;;1.10;99.90;;;;;;5052932;28;20163;-54
2022/03/08 03:41:33;;;;;;;24.02;13.77;;;1.00;99.90;;;;;;5053212;28;20033;-55
2022/03/08 03:43:58;;;;;;;36.92;14.82;;;0.90;99.90;;;;;;5053271;28;20021;-54
2022/03/08 03:46:24;;;;;;;19.98;13.57;;;0.90;99.90;;;;;;5052315;28;20032;-54
2022/03/08 03:48:50;;;;;;;24.10;13.85;;;0.90;99.90;;;;;;5052808;28;20043;-54
2022/03/08 03:51:16;;;;;;;19.25;13.40;;;0.80;99.90;;;;;;5052453;28;20033;-54
2022/03/08 03:53:43;;;;;;;22.67;13.57;;;0.90;99.90;;;;;;5053008;28;20532;-54
2022/03/08 03:56:09;;;;;;;26.85;13.98;;;1.10;99.90;;;;;;5051191;28;20036;-54
2022/03/08 03:58:35;;;;;;;18.80;12.30;;;1.00;99.90;;;;;;5052577;28;20012;-54
2022/03/08 04:01:01;;;;;;;26.10;13.73;;;1.00;99.90;;;;;;5052978;28;20021;-54
2022/03/08 04:03:27;;;;;;;23.33;14.00;;;1.00;99.90;;;;;;5052695;28;20021;-55
2022/03/08 04:05:52;;;;;;;19.60;12.93;;;0.80;99.90;;;;;;5051647;28;20071;-54
2022/03/08 04:08:20;;;;;;;20.83;13.43;;;1.00;99.90;;;;;;5052625;28;20021;-54
2022/03/08 04:10:48;;;;;;;24.52;13.20;;;1.00;99.90;;;;;;5053199;28;20611;-54
2022/03/08 04:13:14;;;;;;;20.10;13.48;;;0.90;99.90;;;;;;5052592;28;20369;-54
2022/03/08 04:15:41;;;;;;;20.67;12.80;;;0.80;99.90;;;;;;5052440;28;20032;-54
2022/03/08 04:18:07;;;;;;;24.33;12.93;;;0.80;99.90;;;;;;5052182;28;20025;-54
2022/03/08 04:20:34;;;;;;;25.50;13.25;;;0.80;99.90;;;;;;5052481;28;20378;-54
2022/03/08 04:22:59;;;;;;;26.05;14.05;;;0.80;99.90;;;;;;5052443;28;20055;-54
2022/03/08 04:25:25;;;;;;;23.95;13.80;;;0.70;99.90;;;;;;5052355;28;20053;-55
2022/03/08 04:27:51;;;;;;;18.55;12.90;;;0.60;99.90;;;;;;5051161;28;20044;-54
2022/03/08 04:30:17;;;;;;;20.55;13.10;;;0.60;99.90;;;;;;5052450;28;20548;-54
2022/03/08 04:32:43;;;;;;;23.98;12.48;;;0.80;99.90;;;;;;5052126;28;20368;-54
2022/03/08 04:35:09;;;;;;;23.45;13.00;;;1.00;99.90;;;;;;5050270;28;20033;-55
2022/03/08 04:37:35;;;;;;;18.25;12.43;;;1.00;99.90;;;;;;5050687;28;20029;-54
2022/03/08 04:40:06;;;;;;;22.70;12.93;;;0.90;99.90;;;;;;5051720;28;20474;-54
2022/03/08 04:42:32;;;;;;;20.48;12.82;;;0.80;99.90;;;;;;5052448;28;20381;-54
2022/03/08 04:44:58;;;;;;;18.92;12.48;;;0.80;99.90;;;;;;5052355;28;20486;-54
2022/03/08 04:47:24;;;;;;;20.58;13.07;;;0.80;99.90;;;;;;5051491;28;20029;-54
2022/03/08 04:49:49;;;;;;;23.73;12.65;;;0.80;99.90;;;;;;5052097;28;20040;-54
2022/03/08 04:52:15;;;;;;;22.85;12.98;;;0.70;99.90;;;;;;5054161;28;20420;-54
2022/03/08 04:54:40;;;;;;;19.13;12.77;;;0.60;99.90;;;;;;5055834;28;20037;-55
2022/03/08 04:57:06;;;;;;;23.88;13.20;;;0.50;99.90;;;;;;5056015;28;20031;-54
2022/03/08 04:59:32;;;;;;;21.92;13.13;;;0.40;99.90;;;;;;5055852;28;20021;-55
2022/03/08 05:01:58;;;;;;;23.23;13.80;;;0.40;99.90;;;;;;5056044;28;20060;-54
2022/03/08 05:04:24;;;;;;;24.17;12.77;;;0.40;99.90;;;;;;5054760;28;20390;-55
2022/03/08 05:06:49;;;;;;;20.63;13.05;;;0.40;99.90;;;;;;5056003;28;20021;-55
2022/03/08 05:09:16;;;;;;;20.10;12.60;;;0.40;99.90;;;;;;5055910;28;20685;-55
2022/03/08 05:11:42;;;;;;;23.27;12.80;;;0.50;99.90;;;;;;5054760;28;20013;-55
2022/03/08 05:14:08;;;;;;;19.25;11.82;;;0.50;99.90;;;;;;5054499;28;20540;-55
2022/03/08 05:16:34;;;;;;;22.55;12.73;;;0.40;99.90;;;;;;5055171;28;20061;-55
2022/03/08 05:19:00;;;;;;;17.60;11.30;;;0.40;99.90;;;;;;5055848;28;20053;-55
2022/03/08 05:21:25;;;;;;;18.67;12.27;;;0.40;99.90;;;;;;5055647;28;20066;-55
2022/03/08 05:23:51;;;;;;;21.83;12.00;;;0.30;99.90;;;;;;5056082;28;20025;-55
2022/03/08 05:26:16;;;;;;;18.17;12.45;;;0.30;99.90;;;;;;5055660;28;20040;-55
2022/03/08 05:28:46;;;;;;;17.00;11.70;;;0.30;99.90;;;;;;5055458;28;20029;-55
2022/03/08 05:31:12;;;;;;;16.83;11.73;;;0.30;99.90;;;;;;5054630;28;20041;-55
2022/03/08 05:33:38;;;;;;;23.13;12.52;;;0.40;99.90;;;;;;5055742;28;20047;-55
2022/03/08 05:36:04;;;;;;;22.45;12.88;;;0.40;99.90;;;;;;5055342;28;20028;-55
2022/03/08 05:38:30;;;;;;;18.60;12.90;;;0.40;99.90;;;;;;5055163;28;20339;-55
2022/03/08 05:40:55;;;;;;;22.17;12.55;;;0.50;99.90;;;;;;5053815;28;20067;-55
2022/03/08 05:43:21;;;;;;;20.20;12.43;;;0.70;99.90;;;;;;5054566;28;20045;-55
2022/03/08 05:45:46;;;;;;;20.75;12.20;;;0.70;99.90;;;;;;5055241;28;20033;-55
2022/03/08 05:48:12;;;;;;;32.63;13.05;;;0.80;99.90;;;;;;5054792;28;20021;-55
2022/03/08 05:50:38;;;;;;;26.63;12.48;;;0.80;99.90;;;;;;5054883;28;20033;-55
2022/03/08 05:53:04;;;;;;;22.42;12.32;;;0.90;99.90;;;;;;5055385;28;20028;-54
2022/03/08 05:55:30;;;;;;;22.77;13.15;;;0.80;99.90;;;;;;5055513;28;20021;-55
2022/03/08 05:57:55;;;;;;;26.02;13.30;;;0.80;99.90;;;;;;5053983;28;20500;-55
2022/03/08 06:00:21;;;;;;;27.85;12.73;;;0.70;99.90;;;;;;5055645;28;20028;-54
2022/03/08 06:02:47;;;;;;;19.73;12.40;;;0.60;99.90;;;;;;5054846;28;20033;-55
2022/03/08 06:05:12;;;;;;;25.90;11.90;;;0.60;99.90;;;;;;5054970;28;20422;-55
2022/03/08 06:07:39;;;;;;;25.95;12.52;;;0.70;99.90;;;;;;5055048;28;20025;-55
2022/03/08 06:10:07;;;;;;;20.30;12.40;;;0.70;99.90;;;;;;5054818;28;20025;-55
2022/03/08 06:12:34;;;;;;;36.15;12.85;;;0.70;99.90;;;;;;5054262;28;20029;-55
2022/03/08 06:15:00;;;;;;;19.83;11.90;;;0.70;99.90;;;;;;5054271;28;20494;-56
2022/03/08 06:17:26;;;;;;;26.40;12.02;;;0.70;99.90;;;;;;5054766;28;20409;-56
2022/03/08 06:19:55;;;;;;;36.63;12.73;;;0.80;99.90;;;;;;5054611;28;20387;-56
2022/03/08 06:22:20;;;;;;;22.02;11.98;;;0.90;99.90;;;;;;5054490;28;20071;-55
2022/03/08 06:24:46;;;;;;;23.02;12.65;;;0.70;99.90;;;;;;5054813;28;20033;-56
2022/03/08 06:27:13;;;;;;;20.58;11.82;;;0.70;99.90;;;;;;5054807;28;20025;-55
2022/03/08 06:29:39;;;;;;;18.25;11.40;;;0.80;99.90;;;;;;5054117;28;20124;-55
2022/03/08 06:32:06;;;;;;;17.70;11.55;;;0.80;99.90;;;;;;5052468;28;20044;-55
2022/03/08 06:34:34;;;;;;;25.92;12.68;;;0.70;99.90;;;;;;5053813;28;20024;-55
2022/03/08 06:37:00;;;;;;;17.73;12.43;;;0.70;99.90;;;;;;5053905;28;20198;-55
2022/03/08 06:39:25;;;;;;;26.30;12.65;;;0.70;99.90;;;;;;5053053;28;20083;-56
2022/03/08 06:41:51;;;;;;;19.15;11.88;;;0.60;99.90;;;;;;5052888;28;20048;-56
2022/03/08 06:44:17;;;;;;;25.02;11.50;;;0.60;99.90;;;;;;5053503;28;20029;-55
2022/03/08 06:46:44;;;;;;;19.00;11.73;;;0.70;99.90;;;;;;5053486;28;20385;-55
2022/03/08 06:49:11;;;;;;;17.90;10.98;;;0.60;99.90;;;;;;5052886;28;20112;-55
2022/03/08 06:51:37;;;;;;;22.25;11.50;;;0.70;99.90;;;;;;5053169;28;20036;-55
2022/03/08 06:54:08;;;;;;;19.58;11.05;;;0.70;99.90;;;;;;5046165;28;20040;-55
2022/03/08 06:56:35;;;;;;;21.40;10.98;;;0.80;99.90;;;;;;5052478;28;20116;-55
2022/03/08 06:59:01;;;;;;;20.25;10.95;;;0.90;99.90;;;;;;5052633;28;20478;-55
2022/03/08 07:01:27;;;;;;;23.73;13.32;;;0.90;99.90;;;;;;5052812;28;20021;-55
2022/03/08 07:03:53;;;;;;;20.67;11.25;;;0.90;99.90;;;;;;5063130;28;20017;-54
2022/03/08 07:06:18;;;;;;;18.85;11.07;;;0.90;99.90;;;;;;5046208;28;20029;-55
2022/03/08 07:08:44;;;;;;;21.55;10.77;;;1.10;99.90;;;;;;5045562;28;20463;-54
2022/03/08 07:11:10;;;;;;;22.08;11.30;;;1.10;99.90;;;;;;5041755;28;20513;-55
2022/03/08 07:13:36;;;;;;;22.45;11.48;;;1.20;99.90;;;;;;5042932;28;20025;-55
2022/03/08 07:16:03;;;;;;;17.55;10.27;;;1.30;99.90;;;;;;5041806;28;20033;-55
2022/03/08 07:18:29;;;;;;;18.17;10.68;;;1.40;99.90;;;;;;5040778;28;20031;-56
2022/03/08 07:20:54;;;;;;;21.83;11.10;;;1.40;99.90;;;;;;5045319;28;20656;-55
2022/03/08 07:23:20;;;;;;;18.15;10.80;;;1.50;99.90;;;;;;5045265;28;20079;-56
2022/03/08 07:25:46;;;;;;;20.60;11.57;;;1.60;99.90;;;;;;5051123;28;20485;-55
2022/03/08 07:28:12;;;;;;;17.60;11.48;;;1.80;99.90;;;;;;5049599;28;20920;-55
2022/03/08 07:30:38;;;;;;;22.92;11.45;;;1.90;99.90;;;;;;5052956;28;20036;-56
2022/03/08 07:33:04;;;;;;;22.25;12.15;;;1.90;99.90;;;;;;5057799;28;20076;-55
2022/03/08 07:35:29;;;;;;;20.70;11.48;;;1.90;99.90;;;;;;5044679;28;20064;-55
2022/03/08 07:37:55;;;;;;;20.27;10.85;;;2.00;99.90;;;;;;5044733;28;20067;-55
2022/03/08 07:40:21;;;;;;;20.40;10.65;;;2.00;99.90;;;;;;5043396;28;20204;-56
2022/03/08 07:42:46;;;;;;;16.08;10.90;;;2.00;99.90;;;;;;5054100;28;20047;-55
2022/03/08 07:45:12;;;;;;;17.55;11.27;;;2.00;99.90;;;;;;5049648;28;20051;-55
2022/03/08 07:47:38;;;;;;;16.98;10.55;;;2.10;99.90;;;;;;5047528;28;20033;-56
2022/03/08 07:50:05;;;;;;;19.27;11.23;;;2.10;99.90;;;;;;5043204;28;20028;-56
2022/03/08 07:52:31;;;;;;;19.85;11.68;;;2.20;99.90;;;;;;5039722;28;20029;-56
2022/03/08 07:54:57;;;;;;;18.65;11.63;;;2.40;99.90;;;;;;5039529;28;20044;-56
2022/03/08 07:57:23;;;;;;;19.50;11.93;;;2.50;99.90;;;;;;5041461;28;20037;-56
2022/03/08 07:59:49;;;;;;;14.80;10.50;;;2.70;99.90;;;;;;5039275;28;20021;-56
2022/03/08 08:02:14;;;;;;;18.20;10.88;;;2.80;99.90;;;;;;5039288;28;20044;-56
2022/03/08 08:04:40;;;;;;;21.17;11.85;;;2.90;99.90;;;;;;5040703;28;20029;-56
2022/03/08 08:07:06;;;;;;;18.33;11.30;;;2.90;99.90;;;;;;5040183;28;20037;-56
2022/03/08 08:09:32;;;;;;;16.52;10.98;;;2.80;99.90;;;;;;5038632;28;20040;-56
2022/03/08 08:11:58;;;;;;;18.65;11.30;;;2.90;99.90;;;;;;5033425;28;20382;-56
2022/03/08 08:14:24;;;;;;;16.38;10.75;;;3.00;99.90;;;;;;5029640;28;20016;-56
2022/03/08 08:16:50;;;;;;;16.15;10.25;;;3.10;99.30;;;;;;5037426;28;20505;-56
2022/03/08 08:19:16;;;;;;;16.50;10.00;;;3.20;99.40;;;;;;5036558;28;20031;-56
2022/03/08 08:21:43;;;;;;;14.57;9.30;;;4.10;97.40;;;;;;5031731;28;20082;-56
2022/03/08 08:24:08;;;;;;;13.50;8.95;;;5.40;94.90;;;;;;5040384;28;20032;-56
2022/03/08 08:26:34;;;;;;;15.75;9.20;;;6.20;91.60;;;;;;5037356;28;20025;-56
2022/03/08 08:29:00;;;;;;;20.10;10.80;;;7.00;90.20;;;;;;5047653;28;20036;-56
2022/03/08 08:31:28;;;;;;;13.07;9.88;;;7.80;89.40;;;;;;5036471;28;20070;-55
2022/03/08 08:33:54;;;;;;;13.82;9.25;;;8.40;87.20;;;;;;5032590;28;20040;-56
2022/03/08 08:36:20;;;;;;;11.35;8.55;;;8.60;82.60;;;;;;5037762;28;20021;-56
2022/03/08 08:38:46;;;;;;;11.45;9.00;;;8.40;79.80;;;;;;5037506;28;20040;-56
2022/03/08 08:41:11;;;;;;;10.55;8.25;;;8.50;79.00;;;;;;5040281;28;21699;-55
2022/03/08 08:43:37;;;;;;;11.07;7.97;;;8.50;78.90;;;;;;5031192;28;20029;-56
2022/03/08 08:46:03;;;;;;;10.77;8.23;;;8.90;77.10;;;;;;5035192;28;20489;-56
2022/03/08 08:48:29;;;;;;;10.05;8.38;;;8.50;75.10;;;;;;5037694;28;20509;-56
2022/03/08 08:50:55;;;;;;;10.50;7.93;;;8.20;77.90;;;;;;5035970;28;20025;-56
2022/03/08 08:53:22;;;;;;;13.23;8.52;;;8.10;75.70;;;;;;5032137;28;20036;-56
2022/03/08 08:55:48;;;;;;;10.20;7.85;;;8.30;77.10;;;;;;5040523;28;20040;-56
2022/03/08 08:58:14;;;;;;;10.77;7.97;;;8.30;77.50;;;;;;5039840;28;20036;-55
2022/03/08 09:00:40;;;;;;;12.25;9.10;;;8.40;75.90;;;;;;5038083;28;20025;-55
2022/03/08 09:03:14;;;;;;;11.65;8.13;;;8.10;76.00;;;;;;5039113;28;20087;-56
2022/03/08 09:05:44;;;;;;;12.30;8.40;;;8.20;74.60;;;;;;5035534;28;20076;-56
2022/03/08 09:08:10;;;;;;;13.68;8.82;;;7.60;75.80;;;;;;5040634;28;20040;-56
2022/03/08 09:10:36;;;;;;;11.32;8.88;;;7.90;77.40;;;;;;5038654;28;20085;-57
2022/03/08 09:13:02;;;;;;;15.63;8.65;;;8.30;77.30;;;;;;5040511;28;20033;-57
2022/03/08 09:15:28;;;;;;;16.13;9.50;;;8.40;75.40;;;;;;5038348;28;20175;-56
2022/03/08 09:17:54;;;;;;;11.65;8.80;;;8.10;74.90;;;;;;5035175;28;20116;-57
2022/03/08 09:20:19;;;;;;;16.17;10.07;;;7.90;75.70;;;;;;5040248;28;20056;-57
2022/03/08 09:22:45;;;;;;;13.07;9.07;;;7.60;75.70;;;;;;5040925;28;20021;-56
2022/03/08 09:25:11;;;;;;;11.95;8.88;;;8.20;77.30;;;;;;5033773;28;20037;-57
2022/03/08 09:27:36;;;;;;;11.70;8.93;;;8.30;75.50;;;;;;5039133;28;20520;-56
2022/03/08 09:30:04;;;;;;;14.98;9.00;;;8.20;75.50;;;;;;5035460;28;20547;-56
2022/03/08 09:32:30;;;;;;;13.73;9.30;;;7.80;74.50;;;;;;5034667;28;20158;-56
2022/03/08 09:34:56;;;;;;;14.30;10.00;;;8.10;75.20;;;;;;5029803;28;20052;-56
2022/03/08 09:37:22;;;;;;;15.80;9.77;;;8.40;74.40;;;;;;5038661;28;20054;-56
2022/03/08 09:39:47;;;;;;;14.82;9.23;;;8.50;74.30;;;;;;5044666;28;20034;-57
2022/03/08 09:42:13;;;;;;;11.77;9.40;;;8.40;73.60;;;;;;5046224;28;20067;-56
2022/03/08 09:44:38;;;;;;;13.27;10.00;;;8.20;73.60;;;;;;5042770;28;20494;-56
2022/03/08 09:47:05;;;;;;;14.45;10.13;;;8.30;75.60;;;;;;5044451;28;20052;-56
2022/03/08 09:49:32;;;;;;;12.88;9.95;;;9.20;75.10;;;;;;5041705;28;20116;-56
2022/03/08 09:51:58;;;;;;;13.63;9.77;;;9.50;74.20;;;;;;5029544;28;20041;-56
2022/03/08 09:54:24;;;;;;;11.52;9.57;;;10.10;71.60;;;;;;5033352;28;20043;-57
2022/03/08 09:56:49;;;;;;;14.07;10.57;;;10.00;70.10;;;;;;5037726;28;20064;-56
2022/03/08 09:59:16;;;;;;;14.35;10.10;;;9.60;69.70;;;;;;5039513;28;20537;-57
2022/03/08 10:01:43;;;;;;;15.38;10.35;;;9.50;70.70;;;;;;5036584;28;20123;-56
2022/03/08 10:04:09;;;;;;;15.70;10.68;;;9.40;70.70;;;;;;5038737;28;20083;-56
2022/03/08 10:06:42;;;;;;;13.65;10.23;;;9.50;70.90;;;;;;5038939;28;20147;-57
2022/03/08 10:09:12;;;;;;;15.55;11.02;;;10.10;70.80;;;;;;5034452;28;20041;-56
2022/03/08 10:11:39;;;;;;;14.18;10.13;;;10.00;69.00;;;;;;5042585;28;20032;-56
2022/03/08 10:14:06;;;;;;;13.43;10.10;;;9.50;69.60;;;;;;5041334;28;20304;-56
2022/03/08 10:16:47;;;;;;;16.88;10.32;;;9.50;70.30;;;;;;5040063;28;20037;-56
2022/03/08 10:19:13;;;;;;;15.65;10.20;;;9.40;70.40;;;;;;5035834;28;20130;-56
2022/03/08 10:21:51;;;;;;;15.95;10.55;;;9.90;69.50;;;;;;5039900;28;20029;-56
2022/03/08 10:24:20;;;;;;;12.52;9.90;;;9.80;70.00;;;;;;5040058;28;20021;-56
2022/03/08 10:27:13;;;;;;;12.45;9.85;;;9.80;70.80;;;;;;5043666;28;20025;-57
2022/03/08 10:29:39;;;;;;;12.73;9.90;;;10.30;69.40;;;;;;5039260;28;20112;-57
2022/03/08 10:32:10;;;;;;;13.27;10.15;;;10.20;68.60;;;;;;5037162;28;20112;-56
2022/03/08 10:34:37;;;;;;;14.63;10.35;;;10.30;68.50;;;;;;5038034;28;20025;-56
2022/03/08 10:37:13;;;;;;;13.82;10.18;;;10.30;69.00;;;;;;5042868;28;20021;-56
2022/03/08 10:40:00;;;;;;;20.20;11.68;;;10.20;68.10;;;;;;5039270;28;20026;-56
2022/03/08 10:42:32;;;;;;;16.15;10.48;;;10.60;67.70;;;;;;5033856;28;20028;-56
2022/03/08 10:45:05;;;;;;;14.50;9.82;;;10.60;67.50;;;;;;5041609;28;20029;-56
2022/03/08 10:47:44;;;;;;;18.83;10.50;;;10.30;68.20;;;;;;5038114;28;20025;-56
2022/03/08 10:50:11;;;;;;;15.15;10.25;;;10.20;69.10;;;;;;5034479;28;20036;-56
2022/03/08 10:52:39;;;;;;;12.80;10.18;;;10.40;66.50;;;;;;5037458;28;20079;-56
2022/03/08 10:55:16;;;;;;;14.95;10.40;;;10.50;68.20;;;;;;5036183;28;20033;-57
2022/03/08 10:57:45;;;;;;;14.90;10.90;;;10.90;66.60;;;;;;5041749;28;20021;-57
2022/03/08 11:00:14;;;;;;;18.23;10.25;;;10.80;66.10;;;;;;5036182;28;20032;-56
2022/03/08 11:02:55;;;;;;;16.92;10.93;;;11.30;66.10;;;;;;5041315;28;20021;-56
2022/03/08 11:05:26;;;;;;;14.68;10.45;;;11.20;64.80;;;;;;5034239;28;20025;-56
2022/03/08 11:07:53;;;;;;;17.33;10.07;;;11.40;65.00;;;;;;5038590;28;20025;-56
2022/03/08 11:10:19;;;;;;;15.13;11.50;;;11.30;66.00;;;;;;5033623;28;20021;-56
2022/03/08 11:12:46;;;;;;;15.80;11.20;;;11.90;65.30;;;;;;5038198;28;20166;-56
2022/03/08 11:15:14;;;;;;;14.15;10.93;;;11.90;63.70;;;;;;5038640;28;20059;-56
2022/03/08 11:17:43;;;;;;;15.00;12.55;;;11.80;64.10;;;;;;5036654;28;20071;-56
2022/03/08 11:20:10;;;;;;;17.02;11.35;;;12.30;63.40;;;;;;5034440;28;20394;-57
2022/03/08 11:22:37;;;;;;;16.40;11.25;;;12.30;63.80;;;;;;5037615;28;20192;-57
2022/03/08 11:25:04;;;;;;;15.73;10.25;;;12.40;62.30;;;;;;5036562;28;20032;-57
2022/03/08 11:27:31;;;;;;;14.57;10.75;;;12.70;61.10;;;;;;5032630;28;20025;-57
2022/03/08 11:29:56;;;;;;;16.92;11.45;;;12.50;61.70;;;;;;5034975;28;20036;-59
2022/03/08 11:32:35;;;;;;;18.33;11.63;;;12.80;59.80;;;;;;5037973;28;20445;-57
2022/03/08 11:35:14;;;;;;;20.65;10.32;;;13.20;60.30;;;;;;5041357;28;20052;-57
2022/03/08 11:37:44;;;;;;;17.00;11.10;;;13.00;59.20;;;;;;5040159;28;20449;-57
2022/03/08 11:40:15;;;;;;;14.63;11.18;;;12.90;60.80;;;;;;5042304;28;20104;-57
2022/03/08 11:42:45;;;;;;;14.25;10.73;;;13.40;60.80;;;;;;5036660;28;20032;-57
2022/03/08 11:45:19;;;;;;;17.45;11.38;;;12.90;59.20;;;;;;5035429;28;20405;-57
2022/03/08 11:48:04;;;;;;;14.40;11.10;;;13.30;60.50;;;;;;5035735;28;20029;-57
2022/03/08 11:50:38;;;;;;;15.15;10.95;;;13.40;58.80;;;;;;5033411;28;20079;-57
2022/03/08 11:53:06;;;;;;;12.55;10.15;;;12.80;59.40;;;;;;5040666;28;20090;-57
2022/03/08 11:55:44;;;;;;;14.85;10.98;;;13.20;59.40;;;;;;5038585;28;20033;-57
2022/03/08 11:58:42;;;;;;;17.05;11.25;;;13.10;58.20;;;;;;5040857;28;20075;-56
2022/03/08 12:01:08;;;;;;;14.65;11.05;;;13.10;60.30;;;;;;5040974;28;20029;-56
2022/03/08 12:03:33;;;;;;;14.18;11.10;;;13.40;58.10;;;;;;5043349;28;20107;-56
2022/03/08 12:06:01;;;;;;;16.30;11.52;;;13.70;57.80;;;;;;5038206;28;20047;-57
2022/03/08 12:08:27;;;;;;;14.25;10.65;;;14.20;58.40;;;;;;5038667;28;20030;-57
2022/03/08 12:11:01;;;;;;;14.23;11.65;;;13.70;56.90;;;;;;5038200;28;20067;-56
2022/03/08 12:13:28;;;;;;;14.95;11.32;;;13.40;57.70;;;;;;5036823;28;20823;-55
2022/03/08 12:16:09;;;;;;;13.73;10.48;;;14.00;57.90;;;;;;5038752;28;20104;-57
2022/03/08 12:18:48;;;;;;;12.88;10.60;;;13.40;57.80;;;;;;5038105;28;20029;-59
2022/03/08 12:21:16;;;;;;;13.57;10.55;;;13.30;57.20;;;;;;5033454;28;20029;-58
2022/03/08 12:23:49;;;;;;;15.20;10.43;;;13.60;57.70;;;;;;5038712;28;20021;-58
2022/03/08 12:26:38;;;;;;;12.52;10.60;;;13.70;56.80;;;;;;5037480;28;20040;-58
2022/03/08 12:29:15;;;;;;;13.18;11.23;;;14.30;56.20;;;;;;5036309;28;20116;-58
2022/03/08 12:31:56;;;;;;;13.05;10.20;;;13.90;54.90;;;;;;5035467;28;20099;-57
2022/03/08 12:34:40;;;;;;;12.52;9.57;;;13.60;56.30;;;;;;5034424;28;20032;-57
2022/03/08 12:37:33;;;;;;;13.23;10.32;;;14.10;54.60;;;;;;5037926;28;20064;-57